Cedar City, UT

6:35 AM MST on December 22, 2014 (GMT -0700)
NR7E | Change Station
CLOSE
Current Station
Personal Weather Station
Location: Cedar City, UT
Elevation: 5474 ft
Nearby Weather Stations

Elev 5474 ft 37.77 °N, 113.10 °W | Updated 15 seconds ago

Clear
Clear
39.0 °F
Feels Like 36 °F
N
4.0
Wind Variable Wind from WSW
Gusts 4.0 mph

Today
High -- | Low -- °F
--% Chance of Precip.
Yesterday
High -- | Low -- °F
Precip. -- in
7:44 AM 5:17 PM
New Moon, 0% visible
Pressure 30.00 in
Visibility 10.0 miles
Clouds Clear
Windchill 36 °F
Dew Point 33 °F
Humidity 79%
Rainfall 0.00 in
Snow Depth Not available.
UV 0 out of 12
Pollen 2.50 out of 12
Air Quality Not available.
Flu Activity Not available.
METAR KCDC 221253Z AUTO 13007KT 10SM CLR 03/00 A3005 RMK AO2 SLP158 T00330000

More Conditions Fewer Conditions

Pressure 30.00 in
Visibility 10.0 miles
Clouds Clear
Windchill 36 °F
Dew Point 33 °F
Humidity 79%
Rainfall 0.00 in
Snow Depth Not available.
UV 0 out of 12
Pollen 2.50 out of 12
Air Quality Not available.
Flu Activity Not available.
METAR KCDC 221253Z AUTO 13007KT 10SM CLR 03/00 A3005 RMK AO2 SLP158 T00330000

More Conditions Fewer Conditions

10-Day Weather Forecast

Almanac

Astronomy

Dec. 22, 2014 Rise Set
Actual Time
Civil Twilight
Nautical Twilight
Astronomical Twilight
Moon
Length of Visible Light
Length of Day
Tomorrow will be .
, % of the Moon is Illuminated

Today's Extremes

State Highs State Lows

Community

WunderPhotos

Upload Photos

1,779,599 photos uploaded!

WunderBlogs® & News

Nearby

Air Quality

  Air Quality AQ Index Pollutant
Not available.

Snow Depth

Station Depth Elevation

Earthquake Activity

City Distance Mag. Time & Date
Minimum magnitude displayed is 2.5.

Coastal Water Temperatures

Place Temperature

Nearby Weather Stations